sensor_id;sensor_type;location;lat;lon;timestamp;pressure;altitude;pressure_sealevel;temperature
67515;BMP280;60646;55.802;37.032;2023-07-20T00:01:27;98342.72;;;18.92
67515;BMP280;60646;55.802;37.032;2023-07-20T00:03:53;98330.66;;;18.83
67515;BMP280;60646;55.802;37.032;2023-07-20T00:06:26;98317.84;;;18.74
67515;BMP280;60646;55.802;37.032;2023-07-20T00:08:54;98291.72;;;18.48
67515;BMP280;60646;55.802;37.032;2023-07-20T00:11:26;98320.13;;;18.68
67515;BMP280;60646;55.802;37.032;2023-07-20T00:14:20;98299.22;;;18.49
67515;BMP280;60646;55.802;37.032;2023-07-20T00:16:46;98361.56;;;18.90
67515;BMP280;60646;55.802;37.032;2023-07-20T00:19:15;98320.56;;;18.64
67515;BMP280;60646;55.802;37.032;2023-07-20T00:21:42;98325.84;;;18.62
67515;BMP280;60646;55.802;37.032;2023-07-20T00:24:08;98338.94;;;18.66
67515;BMP280;60646;55.802;37.032;2023-07-20T00:26:37;98375.91;;;18.92
67515;BMP280;60646;55.802;37.032;2023-07-20T00:29:03;98352.75;;;18.70
67515;BMP280;60646;55.802;37.032;2023-07-20T00:31:29;98356.00;;;18.68
67515;BMP280;60646;55.802;37.032;2023-07-20T00:33:56;98355.19;;;18.66
67515;BMP280;60646;55.802;37.032;2023-07-20T00:36:24;98389.28;;;18.90
67515;BMP280;60646;55.802;37.032;2023-07-20T00:38:53;98352.59;;;18.68
67515;BMP280;60646;55.802;37.032;2023-07-20T00:41:20;98347.91;;;18.59
67515;BMP280;60646;55.802;37.032;2023-07-20T00:43:46;98358.72;;;18.68
67515;BMP280;60646;55.802;37.032;2023-07-20T00:46:13;98383.94;;;18.80
67515;BMP280;60646;55.802;37.032;2023-07-20T00:48:40;98362.84;;;18.60
67515;BMP280;60646;55.802;37.032;2023-07-20T00:51:09;98391.34;;;18.80
67515;BMP280;60646;55.802;37.032;2023-07-20T00:53:36;98365.72;;;18.62
67515;BMP280;60646;55.802;37.032;2023-07-20T00:56:02;98377.09;;;18.70
67515;BMP280;60646;55.802;37.032;2023-07-20T00:58:29;98369.97;;;18.65
67515;BMP280;60646;55.802;37.032;2023-07-20T01:00:55;98390.72;;;18.72
67515;BMP280;60646;55.802;37.032;2023-07-20T01:03:21;98366.81;;;18.59
67515;BMP280;60646;55.802;37.032;2023-07-20T01:08:42;98387.91;;;18.70
67515;BMP280;60646;55.802;37.032;2023-07-20T01:11:16;98376.09;;;18.56
67515;BMP280;60646;55.802;37.032;2023-07-20T01:13:44;98375.66;;;18.50
67515;BMP280;60646;55.802;37.032;2023-07-20T01:16:10;98388.47;;;18.59
67515;BMP280;60646;55.802;37.032;2023-07-20T01:18:36;98392.06;;;18.61
67515;BMP280;60646;55.802;37.032;2023-07-20T01:21:09;98392.34;;;18.65
67515;BMP280;60646;55.802;37.032;2023-07-20T01:29:35;98391.06;;;18.66
67515;BMP280;60646;55.802;37.032;2023-07-20T01:32:08;98375.94;;;18.54
67515;BMP280;60646;55.802;37.032;2023-07-20T01:34:36;98380.25;;;18.57
67515;BMP280;60646;55.802;37.032;2023-07-20T01:37:03;98360.84;;;18.41
67515;BMP280;60646;55.802;37.032;2023-07-20T01:39:30;98384.50;;;18.60
67515;BMP280;60646;55.802;37.032;2023-07-20T01:41:57;98383.06;;;18.59
67515;BMP280;60646;55.802;37.032;2023-07-20T01:44:24;98372.13;;;18.47
67515;BMP280;60646;55.802;37.032;2023-07-20T01:46:49;98356.03;;;18.40
67515;BMP280;60646;55.802;37.032;2023-07-20T01:49:16;98385.22;;;18.60
67515;BMP280;60646;55.802;37.032;2023-07-20T01:51:43;98370.69;;;18.46
67515;BMP280;60646;55.802;37.032;2023-07-20T01:54:09;98377.25;;;18.53
67515;BMP280;60646;55.802;37.032;2023-07-20T01:56:35;98362.84;;;18.41
67515;BMP280;60646;55.802;37.032;2023-07-20T01:59:01;98385.94;;;18.61
67515;BMP280;60646;55.802;37.032;2023-07-20T02:01:27;98396.47;;;18.66
67515;BMP280;60646;55.802;37.032;2023-07-20T02:03:54;98390.91;;;18.64
67515;BMP280;60646;55.802;37.032;2023-07-20T02:06:20;98391.88;;;18.69
67515;BMP280;60646;55.802;37.032;2023-07-20T02:08:48;98380.53;;;18.61
67515;BMP280;60646;55.802;37.032;2023-07-20T02:11:14;98381.22;;;18.61
67515;BMP280;60646;55.802;37.032;2023-07-20T02:13:40;98372.94;;;18.59
67515;BMP280;60646;55.802;37.032;2023-07-20T02:16:06;98404.69;;;18.78
67515;BMP280;60646;55.802;37.032;2023-07-20T02:18:32;98387.38;;;18.71
67515;BMP280;60646;55.802;37.032;2023-07-20T02:20:58;98383.94;;;18.71
67515;BMP280;60646;55.802;37.032;2023-07-20T02:23:24;98405.97;;;18.86
67515;BMP280;60646;55.802;37.032;2023-07-20T02:25:50;98404.13;;;18.89
67515;BMP280;60646;55.802;37.032;2023-07-20T02:28:16;98401.00;;;18.93
67515;BMP280;60646;55.802;37.032;2023-07-20T02:30:42;98400.44;;;18.94
67515;BMP280;60646;55.802;37.032;2023-07-20T02:33:10;98393.88;;;18.97
67515;BMP280;60646;55.802;37.032;2023-07-20T02:35:39;98403.41;;;18.98
67515;BMP280;60646;55.802;37.032;2023-07-20T02:38:05;98403.53;;;19.00
67515;BMP280;60646;55.802;37.032;2023-07-20T02:40:33;98340.94;;;18.56
67515;BMP280;60646;55.802;37.032;2023-07-20T02:42:59;98330.97;;;18.49
67515;BMP280;60646;55.802;37.032;2023-07-20T02:45:26;98342.47;;;18.59
67515;BMP280;60646;55.802;37.032;2023-07-20T02:59:25;98349.03;;;18.75
67515;BMP280;60646;55.802;37.032;2023-07-20T03:02:03;98415.75;;;19.30
67515;BMP280;60646;55.802;37.032;2023-07-20T03:07:27;98337.50;;;18.84
67515;BMP280;60646;55.802;37.032;2023-07-20T03:09:55;98336.16;;;18.95
67515;BMP280;60646;55.802;37.032;2023-07-20T03:15:19;98341.97;;;19.10
67515;BMP280;60646;55.802;37.032;2023-07-20T03:20:36;98340.63;;;19.30
67515;BMP280;60646;55.802;37.032;2023-07-20T03:23:03;98413.50;;;19.88
67515;BMP280;60646;55.802;37.032;2023-07-20T03:28:40;98350.94;;;19.53
67515;BMP280;60646;55.802;37.032;2023-07-20T03:34:11;98353.09;;;19.76
67515;BMP280;60646;55.802;37.032;2023-07-20T03:42:40;98345.22;;;19.80
67515;BMP280;60646;55.802;37.032;2023-07-20T03:45:09;98359.53;;;19.92
67515;BMP280;60646;55.802;37.032;2023-07-20T03:59:29;98369.00;;;20.12
67515;BMP280;60646;55.802;37.032;2023-07-20T04:02:07;98435.63;;;20.69
67515;BMP280;60646;55.802;37.032;2023-07-20T04:13:46;98391.28;;;20.22
67515;BMP280;60646;55.802;37.032;2023-07-20T04:16:13;98383.50;;;20.16
67515;BMP280;60646;55.802;37.032;2023-07-20T04:21:40;98418.84;;;20.40
67515;BMP280;60646;55.802;37.032;2023-07-20T04:24:11;98439.44;;;20.54
67515;BMP280;60646;55.802;37.032;2023-07-20T04:26:40;98448.69;;;20.61
67515;BMP280;60646;55.802;37.032;2023-07-20T04:29:08;98448.63;;;20.70
67515;BMP280;60646;55.802;37.032;2023-07-20T04:31:43;98438.66;;;20.63
67515;BMP280;60646;55.802;37.032;2023-07-20T04:34:10;98445.75;;;20.68
67515;BMP280;60646;55.802;37.032;2023-07-20T04:36:37;98440.09;;;20.64
67515;BMP280;60646;55.802;37.032;2023-07-20T04:39:05;98420.44;;;20.54
67515;BMP280;60646;55.802;37.032;2023-07-20T04:41:38;98443.88;;;20.71
67515;BMP280;60646;55.802;37.032;2023-07-20T04:44:08;98452.41;;;20.77
67515;BMP280;60646;55.802;37.032;2023-07-20T04:46:33;98441.31;;;20.73
67515;BMP280;60646;55.802;37.032;2023-07-20T04:49:03;98439.16;;;20.71
67515;BMP280;60646;55.802;37.032;2023-07-20T04:51:34;98437.56;;;20.78
67515;BMP280;60646;55.802;37.032;2023-07-20T04:54:00;98457.41;;;20.92
67515;BMP280;60646;55.802;37.032;2023-07-20T04:56:33;98432.38;;;20.82
67515;BMP280;60646;55.802;37.032;2023-07-20T05:01:51;98379.50;;;20.50
67515;BMP280;60646;55.802;37.032;2023-07-20T05:04:17;98391.09;;;20.62
67515;BMP280;60646;55.802;37.032;2023-07-20T05:06:44;98390.78;;;20.68
67515;BMP280;60646;55.802;37.032;2023-07-20T05:11:54;98390.69;;;20.77
67515;BMP280;60646;55.802;37.032;2023-07-20T05:14:22;98402.16;;;20.87
67515;BMP280;60646;55.802;37.032;2023-07-20T05:16:50;98388.47;;;20.85
67515;BMP280;60646;55.802;37.032;2023-07-20T05:19:17;98379.72;;;20.87
67515;BMP280;60646;55.802;37.032;2023-07-20T05:21:54;98454.66;;;21.48
67515;BMP280;60646;55.802;37.032;2023-07-20T05:24:26;98443.31;;;21.40
67515;BMP280;60646;55.802;37.032;2023-07-20T05:27:00;98454.69;;;21.59
67515;BMP280;60646;55.802;37.032;2023-07-20T05:29:26;98404.13;;;21.31
67515;BMP280;60646;55.802;37.032;2023-07-20T05:31:53;98388.75;;;21.24
67515;BMP280;60646;55.802;37.032;2023-07-20T05:34:23;98381.94;;;21.23
67515;BMP280;60646;55.802;37.032;2023-07-20T05:36:49;98419.22;;;21.57
67515;BMP280;60646;55.802;37.032;2023-07-20T05:39:18;98434.34;;;21.72
67515;BMP280;60646;55.802;37.032;2023-07-20T05:41:44;98430.81;;;21.69
67515;BMP280;60646;55.802;37.032;2023-07-20T05:44:10;98453.38;;;21.95
67515;BMP280;60646;55.802;37.032;2023-07-20T05:46:36;98436.25;;;21.81
67515;BMP280;60646;55.802;37.032;2023-07-20T05:49:02;98445.09;;;21.93
67515;BMP280;60646;55.802;37.032;2023-07-20T05:51:27;98439.28;;;21.99
67515;BMP280;60646;55.802;37.032;2023-07-20T05:53:53;98425.59;;;21.97
67515;BMP280;60646;55.802;37.032;2023-07-20T05:56:19;98431.97;;;22.01
67515;BMP280;60646;55.802;37.032;2023-07-20T05:58:45;98442.31;;;22.16
67515;BMP280;60646;55.802;37.032;2023-07-20T06:01:10;98446.66;;;22.21
67515;BMP280;60646;55.802;37.032;2023-07-20T06:03:36;98466.53;;;22.35
67515;BMP280;60646;55.802;37.032;2023-07-20T06:06:05;98455.97;;;22.41
67515;BMP280;60646;55.802;37.032;2023-07-20T06:08:32;98454.78;;;22.44
67515;BMP280;60646;55.802;37.032;2023-07-20T06:10:59;98442.38;;;22.41
67515;BMP280;60646;55.802;37.032;2023-07-20T06:13:26;98437.66;;;22.42
67515;BMP280;60646;55.802;37.032;2023-07-20T06:15:52;98426.97;;;22.46
67515;BMP280;60646;55.802;37.032;2023-07-20T06:18:19;98396.63;;;22.26
67515;BMP280;60646;55.802;37.032;2023-07-20T06:20:51;98420.94;;;22.47
67515;BMP280;60646;55.802;37.032;2023-07-20T06:23:18;98438.13;;;22.63
67515;BMP280;60646;55.802;37.032;2023-07-20T06:25:48;98387.63;;;22.35
67515;BMP280;60646;55.802;37.032;2023-07-20T06:28:15;98398.03;;;22.52
67515;BMP280;60646;55.802;37.032;2023-07-20T06:30:41;98421.50;;;22.71
67515;BMP280;60646;55.802;37.032;2023-07-20T06:33:06;98449.13;;;22.91
67515;BMP280;60646;55.802;37.032;2023-07-20T06:35:34;98443.19;;;22.94
67515;BMP280;60646;55.802;37.032;2023-07-20T06:38:02;98441.97;;;22.97
67515;BMP280;60646;55.802;37.032;2023-07-20T06:40:30;98447.66;;;23.01
67515;BMP280;60646;55.802;37.032;2023-07-20T06:42:56;98460.09;;;23.18
67515;BMP280;60646;55.802;37.032;2023-07-20T06:45:23;98449.38;;;23.08
67515;BMP280;60646;55.802;37.032;2023-07-20T06:47:49;98441.09;;;23.06
67515;BMP280;60646;55.802;37.032;2023-07-20T06:50:14;98438.81;;;23.14
67515;BMP280;60646;55.802;37.032;2023-07-20T06:52:40;98436.66;;;23.13
67515;BMP280;60646;55.802;37.032;2023-07-20T06:55:07;98446.78;;;23.24
67515;BMP280;60646;55.802;37.032;2023-07-20T06:57:33;98442.72;;;23.25
67515;BMP280;60646;55.802;37.032;2023-07-20T06:59:59;98472.22;;;23.42
67515;BMP280;60646;55.802;37.032;2023-07-20T07:02:25;98471.03;;;23.45
67515;BMP280;60646;55.802;37.032;2023-07-20T07:04:51;98464.38;;;23.48
67515;BMP280;60646;55.802;37.032;2023-07-20T07:07:17;98458.72;;;23.44
67515;BMP280;60646;55.802;37.032;2023-07-20T07:09:43;98447.91;;;23.46
67515;BMP280;60646;55.802;37.032;2023-07-20T07:12:10;98456.38;;;23.52
67515;BMP280;60646;55.802;37.032;2023-07-20T07:14:36;98455.78;;;23.53
67515;BMP280;60646;55.802;37.032;2023-07-20T07:17:02;98469.53;;;23.69
67515;BMP280;60646;55.802;37.032;2023-07-20T07:19:28;98457.00;;;23.64
67515;BMP280;60646;55.802;37.032;2023-07-20T07:21:55;98450.84;;;23.64
67515;BMP280;60646;55.802;37.032;2023-07-20T07:24:21;98459.44;;;23.72
67515;BMP280;60646;55.802;37.032;2023-07-20T07:26:48;98477.28;;;23.88
67515;BMP280;60646;55.802;37.032;2023-07-20T07:29:14;98453.66;;;23.79
67515;BMP280;60646;55.802;37.032;2023-07-20T07:31:40;98460.03;;;23.84
67515;BMP280;60646;55.802;37.032;2023-07-20T07:34:06;98444.88;;;23.81
67515;BMP280;60646;55.802;37.032;2023-07-20T07:36:32;98465.56;;;23.99
67515;BMP280;60646;55.802;37.032;2023-07-20T07:38:59;98469.41;;;24.08
67515;BMP280;60646;55.802;37.032;2023-07-20T07:41:25;98476.25;;;24.22
67515;BMP280;60646;55.802;37.032;2023-07-20T07:43:50;98469.44;;;24.23
67515;BMP280;60646;55.802;37.032;2023-07-20T07:46:16;98467.13;;;24.31
67515;BMP280;60646;55.802;37.032;2023-07-20T07:48:43;98462.03;;;24.39
67515;BMP280;60646;55.802;37.032;2023-07-20T07:51:09;98484.31;;;24.63
67515;BMP280;60646;55.802;37.032;2023-07-20T07:53:35;98467.44;;;24.69
67515;BMP280;60646;55.802;37.032;2023-07-20T07:56:03;98483.13;;;24.82
67515;BMP280;60646;55.802;37.032;2023-07-20T07:58:29;98464.59;;;24.80
67515;BMP280;60646;55.802;37.032;2023-07-20T08:00:55;98471.09;;;24.89
67515;BMP280;60646;55.802;37.032;2023-07-20T08:03:21;98488.22;;;25.05
67515;BMP280;60646;55.802;37.032;2023-07-20T08:05:49;98482.75;;;25.05
67515;BMP280;60646;55.802;37.032;2023-07-20T08:08:15;98466.00;;;24.97
67515;BMP280;60646;55.802;37.032;2023-07-20T08:10:42;98484.16;;;25.06
67515;BMP280;60646;55.802;37.032;2023-07-20T08:13:07;98491.41;;;25.15
67515;BMP280;60646;55.802;37.032;2023-07-20T08:15:34;98474.66;;;25.07
67515;BMP280;60646;55.802;37.032;2023-07-20T08:18:03;98474.13;;;25.10
67515;BMP280;60646;55.802;37.032;2023-07-20T08:20:30;98486.41;;;25.25
67515;BMP280;60646;55.802;37.032;2023-07-20T08:22:59;98492.19;;;25.33
67515;BMP280;60646;55.802;37.032;2023-07-20T08:25:25;98493.16;;;25.39
67515;BMP280;60646;55.802;37.032;2023-07-20T08:27:51;98500.47;;;25.51
67515;BMP280;60646;55.802;37.032;2023-07-20T08:30:21;98477.47;;;25.40
67515;BMP280;60646;55.802;37.032;2023-07-20T08:32:47;98476.22;;;25.43
67515;BMP280;60646;55.802;37.032;2023-07-20T08:35:13;98489.50;;;25.66
67515;BMP280;60646;55.802;37.032;2023-07-20T08:37:40;98481.31;;;25.66
67515;BMP280;60646;55.802;37.032;2023-07-20T08:40:07;98487.66;;;25.71
67515;BMP280;60646;55.802;37.032;2023-07-20T08:42:34;98488.53;;;25.75
67515;BMP280;60646;55.802;37.032;2023-07-20T08:45:05;98479.69;;;25.77
67515;BMP280;60646;55.802;37.032;2023-07-20T08:47:31;98465.41;;;25.78
67515;BMP280;60646;55.802;37.032;2023-07-20T08:49:58;98462.75;;;25.80
67515;BMP280;60646;55.802;37.032;2023-07-20T08:52:28;98453.22;;;25.81
67515;BMP280;60646;55.802;37.032;2023-07-20T08:54:55;98489.59;;;26.01
67515;BMP280;60646;55.802;37.032;2023-07-20T08:57:22;98484.56;;;25.96
67515;BMP280;60646;55.802;37.032;2023-07-20T08:59:49;98479.25;;;26.00
67515;BMP280;60646;55.802;37.032;2023-07-20T09:02:17;98494.22;;;26.14
67515;BMP280;60646;55.802;37.032;2023-07-20T09:04:44;98466.94;;;25.99
67515;BMP280;60646;55.802;37.032;2023-07-20T09:07:11;98477.47;;;26.06
67515;BMP280;60646;55.802;37.032;2023-07-20T09:09:40;98472.09;;;26.08
67515;BMP280;60646;55.802;37.032;2023-07-20T09:12:15;98512.97;;;26.22
67515;BMP280;60646;55.802;37.032;2023-07-20T09:15:00;98524.19;;;26.10
67515;BMP280;60646;55.802;37.032;2023-07-20T09:17:27;98498.53;;;25.86
67515;BMP280;60646;55.802;37.032;2023-07-20T09:19:52;98520.59;;;25.90
67515;BMP280;60646;55.802;37.032;2023-07-20T09:22:18;98516.16;;;25.81
67515;BMP280;60646;55.802;37.032;2023-07-20T09:24:44;98485.03;;;25.57
67515;BMP280;60646;55.802;37.032;2023-07-20T09:27:11;98488.75;;;25.48
67515;BMP280;60646;55.802;37.032;2023-07-20T09:29:53;98511.31;;;25.64
67515;BMP280;60646;55.802;37.032;2023-07-20T09:32:20;98508.16;;;25.54
67515;BMP280;60646;55.802;37.032;2023-07-20T09:34:46;98476.88;;;25.26
67515;BMP280;60646;55.802;37.032;2023-07-20T09:37:12;98485.22;;;25.30
67515;BMP280;60646;55.802;37.032;2023-07-20T09:39:45;98501.63;;;25.46
67515;BMP280;60646;55.802;37.032;2023-07-20T09:42:12;98500.94;;;25.45
67515;BMP280;60646;55.802;37.032;2023-07-20T09:44:42;98510.53;;;25.46
67515;BMP280;60646;55.802;37.032;2023-07-20T09:47:09;98507.78;;;25.46
67515;BMP280;60646;55.802;37.032;2023-07-20T09:49:41;98498.09;;;25.43
67515;BMP280;60646;55.802;37.032;2023-07-20T09:52:08;98498.09;;;25.43
67515;BMP280;60646;55.802;37.032;2023-07-20T09:54:37;98509.75;;;25.59
67515;BMP280;60646;55.802;37.032;2023-07-20T09:57:06;98508.56;;;25.64
67515;BMP280;60646;55.802;37.032;2023-07-20T09:59:33;98487.84;;;25.59
67515;BMP280;60646;55.802;37.032;2023-07-20T10:02:01;98475.91;;;25.68
67515;BMP280;60646;55.802;37.032;2023-07-20T10:04:29;98500.75;;;25.90
67515;BMP280;60646;55.802;37.032;2023-07-20T10:06:59;98488.84;;;25.99
67515;BMP280;60646;55.802;37.032;2023-07-20T10:09:26;98473.47;;;25.92
67515;BMP280;60646;55.802;37.032;2023-07-20T10:11:53;98479.25;;;26.00
67515;BMP280;60646;55.802;37.032;2023-07-20T10:14:20;98470.59;;;26.05
67515;BMP280;60646;55.802;37.032;2023-07-20T10:16:50;98482.88;;;26.22
67515;BMP280;60646;55.802;37.032;2023-07-20T10:19:30;98484.78;;;26.35
67515;BMP280;60646;55.802;37.032;2023-07-20T10:22:19;98479.47;;;26.21
67515;BMP280;60646;55.802;37.032;2023-07-20T10:24:46;98484.59;;;26.13
67515;BMP280;60646;55.802;37.032;2023-07-20T10:27:13;98472.22;;;25.95
67515;BMP280;60646;55.802;37.032;2023-07-20T10:29:40;98466.91;;;25.81
67515;BMP280;60646;55.802;37.032;2023-07-20T10:32:10;98510.72;;;25.99
67515;BMP280;60646;55.802;37.032;2023-07-20T10:34:36;98526.34;;;25.96
67515;BMP280;60646;55.802;37.032;2023-07-20T10:37:02;98505.00;;;25.77
67515;BMP280;60646;55.802;37.032;2023-07-20T10:39:31;98507.94;;;25.81
67515;BMP280;60646;55.802;37.032;2023-07-20T10:42:01;98518.53;;;25.89
67515;BMP280;60646;55.802;37.032;2023-07-20T10:44:30;98525.84;;;25.84
67515;BMP280;60646;55.802;37.032;2023-07-20T10:47:03;98510.44;;;25.75
67515;BMP280;60646;55.802;37.032;2023-07-20T10:49:34;98514.81;;;25.82
67515;BMP280;60646;55.802;37.032;2023-07-20T10:52:05;98524.59;;;25.87
67515;BMP280;60646;55.802;37.032;2023-07-20T10:56:58;98527.81;;;25.99
67515;BMP280;60646;55.802;37.032;2023-07-20T10:59:46;98502.78;;;25.89
67515;BMP280;60646;55.802;37.032;2023-07-20T11:02:12;98501.63;;;25.94
67515;BMP280;60646;55.802;37.032;2023-07-20T11:04:39;98530.69;;;26.19
67515;BMP280;60646;55.802;37.032;2023-07-20T11:07:06;98522.03;;;26.09
67515;BMP280;60646;55.802;37.032;2023-07-20T11:09:38;98547.72;;;26.17
67515;BMP280;60646;55.802;37.032;2023-07-20T11:12:15;98573.00;;;26.16
67515;BMP280;60646;55.802;37.032;2023-07-20T11:14:56;98573.03;;;26.00
67515;BMP280;60646;55.802;37.032;2023-07-20T11:17:29;98556.88;;;25.58
67515;BMP280;60646;55.802;37.032;2023-07-20T11:19:56;98568.22;;;25.21
67515;BMP280;60646;55.802;37.032;2023-07-20T11:22:23;98562.03;;;24.76
67515;BMP280;60646;55.802;37.032;2023-07-20T11:24:49;98571.03;;;24.49
67515;BMP280;60646;55.802;37.032;2023-07-20T11:27:16;98574.19;;;24.16
67515;BMP280;60646;55.802;37.032;2023-07-20T11:29:45;98547.19;;;23.68
67515;BMP280;60646;55.802;37.032;2023-07-20T11:32:22;98575.88;;;23.69
67515;BMP280;60646;55.802;37.032;2023-07-20T11:34:48;98545.19;;;23.30
67515;BMP280;60646;55.802;37.032;2023-07-20T11:37:16;98543.72;;;23.15
67515;BMP280;60646;55.802;37.032;2023-07-20T11:39:44;98556.69;;;23.15
67515;BMP280;60646;55.802;37.032;2023-07-20T11:42:11;98552.66;;;23.04
67515;BMP280;60646;55.802;37.032;2023-07-20T11:44:37;98540.66;;;22.96
67515;BMP280;60646;55.802;37.032;2023-07-20T11:47:08;98551.81;;;23.13
67515;BMP280;60646;55.802;37.032;2023-07-20T11:49:35;98552.75;;;23.18
67515;BMP280;60646;55.802;37.032;2023-07-20T11:52:07;98532.41;;;23.07
67515;BMP280;60646;55.802;37.032;2023-07-20T11:54:34;98527.06;;;23.09
67515;BMP280;60646;55.802;37.032;2023-07-20T11:57:01;98533.88;;;23.22
67515;BMP280;60646;55.802;37.032;2023-07-20T11:59:36;98519.03;;;23.25
67515;BMP280;60646;55.802;37.032;2023-07-20T12:02:02;98522.91;;;23.33
67515;BMP280;60646;55.802;37.032;2023-07-20T12:04:30;98533.94;;;23.49
67515;BMP280;60646;55.802;37.032;2023-07-20T12:06:57;98522.91;;;23.47
67515;BMP280;60646;55.802;37.032;2023-07-20T12:09:23;98548.13;;;23.73
67515;BMP280;60646;55.802;37.032;2023-07-20T12:11:50;98550.41;;;23.78
67515;BMP280;60646;55.802;37.032;2023-07-20T12:14:16;98541.97;;;23.72
67515;BMP280;60646;55.802;37.032;2023-07-20T12:16:43;98529.75;;;23.73
67515;BMP280;60646;55.802;37.032;2023-07-20T12:19:11;98512.34;;;23.67
67515;BMP280;60646;55.802;37.032;2023-07-20T12:21:39;98537.50;;;23.92
67515;BMP280;60646;55.802;37.032;2023-07-20T12:24:07;98549.94;;;24.09
67515;BMP280;60646;55.802;37.032;2023-07-20T12:26:34;98535.47;;;24.06
67515;BMP280;60646;55.802;37.032;2023-07-20T12:29:00;98530.50;;;24.16
67515;BMP280;60646;55.802;37.032;2023-07-20T12:31:27;98525.53;;;24.26
67515;BMP280;60646;55.802;37.032;2023-07-20T12:33:53;98540.78;;;24.45
67515;BMP280;60646;55.802;37.032;2023-07-20T12:36:22;98537.81;;;24.55
67515;BMP280;60646;55.802;37.032;2023-07-20T12:38:49;98530.63;;;24.61
67515;BMP280;60646;55.802;37.032;2023-07-20T12:41:14;98512.44;;;24.52
67515;BMP280;60646;55.802;37.032;2023-07-20T12:43:59;98536.22;;;24.79
67515;BMP280;60646;55.802;37.032;2023-07-20T12:46:25;98517.09;;;24.79
67515;BMP280;60646;55.802;37.032;2023-07-20T12:48:51;98525.47;;;24.83
67515;BMP280;60646;55.802;37.032;2023-07-20T12:51:17;98538.47;;;24.98
67515;BMP280;60646;55.802;37.032;2023-07-20T12:53:45;98546.25;;;25.03
67515;BMP280;60646;55.802;37.032;2023-07-20T12:56:13;98529.50;;;24.95
67515;BMP280;60646;55.802;37.032;2023-07-20T12:58:39;98505.13;;;24.86
67515;BMP280;60646;55.802;37.032;2023-07-20T13:01:05;98508.25;;;24.94
67515;BMP280;60646;55.802;37.032;2023-07-20T13:03:30;98520.66;;;24.97
67515;BMP280;60646;55.802;37.032;2023-07-20T13:05:56;98522.19;;;25.00
67515;BMP280;60646;55.802;37.032;2023-07-20T13:08:23;98550.13;;;25.14
67515;BMP280;60646;55.802;37.032;2023-07-20T13:10:51;98530.75;;;25.08
67515;BMP280;60646;55.802;37.032;2023-07-20T13:13:17;98523.50;;;24.99
67515;BMP280;60646;55.802;37.032;2023-07-20T13:15:44;98525.47;;;25.12
67515;BMP280;60646;55.802;37.032;2023-07-20T13:18:10;98526.06;;;25.10
67515;BMP280;60646;55.802;37.032;2023-07-20T13:20:35;98529.69;;;25.15
67515;BMP280;60646;55.802;37.032;2023-07-20T13:23:01;98504.53;;;25.03
67515;BMP280;60646;55.802;37.032;2023-07-20T13:25:27;98535.59;;;25.25
67515;BMP280;60646;55.802;37.032;2023-07-20T13:27:54;98517.13;;;25.10
67515;BMP280;60646;55.802;37.032;2023-07-20T13:30:19;98514.88;;;25.04
67515;BMP280;60646;55.802;37.032;2023-07-20T13:32:47;98514.22;;;25.06
67515;BMP280;60646;55.802;37.032;2023-07-20T13:35:13;98539.66;;;25.24
67515;BMP280;60646;55.802;37.032;2023-07-20T13:37:39;98531.25;;;25.20
67515;BMP280;60646;55.802;37.032;2023-07-20T13:40:05;98518.03;;;25.14
67515;BMP280;60646;55.802;37.032;2023-07-20T13:42:32;98511.78;;;25.12
67515;BMP280;60646;55.802;37.032;2023-07-20T13:45:03;98512.66;;;25.16
67515;BMP280;60646;55.802;37.032;2023-07-20T13:47:32;98503.47;;;25.10
67515;BMP280;60646;55.802;37.032;2023-07-20T13:49:59;98520.06;;;25.14
67515;BMP280;60646;55.802;37.032;2023-07-20T13:52:24;98529.69;;;25.15
67515;BMP280;60646;55.802;37.032;2023-07-20T13:54:50;98526.00;;;25.08
67515;BMP280;60646;55.802;37.032;2023-07-20T13:57:16;98522.63;;;24.94
67515;BMP280;60646;55.802;37.032;2023-07-20T13:59:43;98558.06;;;25.08
67515;BMP280;60646;55.802;37.032;2023-07-20T14:02:08;98529.09;;;24.87
67515;BMP280;60646;55.802;37.032;2023-07-20T14:04:34;98520.72;;;24.83
67515;BMP280;60646;55.802;37.032;2023-07-20T14:07:01;98517.09;;;24.79
67515;BMP280;60646;55.802;37.032;2023-07-20T14:09:27;98539.78;;;24.97
67515;BMP280;60646;55.802;37.032;2023-07-20T14:11:53;98520.84;;;24.85
67515;BMP280;60646;55.802;37.032;2023-07-20T14:14:18;98537.06;;;24.97
67515;BMP280;60646;55.802;37.032;2023-07-20T14:16:44;98524.63;;;24.94
67515;BMP280;60646;55.802;37.032;2023-07-20T14:19:10;98527.03;;;25.01
67515;BMP280;60646;55.802;37.032;2023-07-20T14:21:36;98495.81;;;24.91
67515;BMP280;60646;55.802;37.032;2023-07-20T14:24:02;98538.34;;;25.25
67515;BMP280;60646;55.802;37.032;2023-07-20T14:26:28;98511.34;;;25.17
67515;BMP280;60646;55.802;37.032;2023-07-20T14:28:54;98513.63;;;25.23
67515;BMP280;60646;55.802;37.032;2023-07-20T14:31:22;98504.47;;;25.16
67515;BMP280;60646;55.802;37.032;2023-07-20T14:33:51;98523.41;;;25.28
67515;BMP280;60646;55.802;37.032;2023-07-20T14:36:17;98539.84;;;25.44
67515;BMP280;60646;55.802;37.032;2023-07-20T14:38:50;98532.78;;;25.38
67515;BMP280;60646;55.802;37.032;2023-07-20T14:41:17;98530.31;;;25.29
67515;BMP280;60646;55.802;37.032;2023-07-20T14:43:44;98522.13;;;25.29
67515;BMP280;60646;55.802;37.032;2023-07-20T14:46:10;98530.41;;;25.31
67515;BMP280;60646;55.802;37.032;2023-07-20T14:48:35;98531.13;;;25.31
67515;BMP280;60646;55.802;37.032;2023-07-20T14:51:01;98541.53;;;25.35
67515;BMP280;60646;55.802;37.032;2023-07-20T14:53:28;98535.69;;;25.27
67515;BMP280;60646;55.802;37.032;2023-07-20T14:55:59;98547.84;;;25.24
67515;BMP280;60646;55.802;37.032;2023-07-20T14:58:25;98548.75;;;25.28
67515;BMP280;60646;55.802;37.032;2023-07-20T15:00:57;98543.91;;;25.27
67515;BMP280;60646;55.802;37.032;2023-07-20T15:03:26;98541.91;;;25.14
67515;BMP280;60646;55.802;37.032;2023-07-20T15:05:52;98547.84;;;25.24
67515;BMP280;60646;55.802;37.032;2023-07-20T15:08:18;98541.25;;;25.13
67515;BMP280;60646;55.802;37.032;2023-07-20T15:10:45;98536.22;;;25.08
67515;BMP280;60646;55.802;37.032;2023-07-20T15:13:12;98557.19;;;25.19